createdAt,value
2017-08-18T00:00:42.779Z,57.50
2017-08-18T00:03:11.062Z,57.00
2017-08-18T00:05:38.586Z,57.00
2017-08-18T00:08:06.109Z,57.20
2017-08-18T00:10:33.671Z,57.20
2017-08-18T00:13:01.198Z,57.40
2017-08-18T00:15:28.725Z,57.30
2017-08-18T00:17:56.258Z,57.50
2017-08-18T00:20:23.792Z,58.00
2017-08-18T00:22:51.342Z,57.70
2017-08-18T00:25:18.866Z,57.50
2017-08-18T00:27:47.158Z,57.10
2017-08-18T00:30:15.449Z,57.10
2017-08-18T00:32:42.982Z,57.10
2017-08-18T00:35:11.405Z,56.90
2017-08-18T00:37:38.969Z,56.80
2017-08-18T00:40:06.494Z,57.00
2017-08-18T00:42:34.039Z,57.50
2017-08-18T00:45:02.340Z,57.90
2017-08-18T00:47:29.927Z,57.90
2017-08-18T00:49:57.458Z,57.80
2017-08-18T00:52:24.986Z,57.70
2017-08-18T00:54:53.273Z,57.70
2017-08-18T00:57:21.561Z,57.20
2017-08-18T00:59:49.114Z,57.10
2017-08-18T01:02:16.642Z,57.50
2017-08-18T01:04:44.173Z,58.10
2017-08-18T01:07:11.733Z,58.00
2017-08-18T01:09:39.266Z,57.30
2017-08-18T01:12:06.837Z,57.80
2017-08-18T01:14:34.362Z,58.10
2017-08-18T01:17:02.654Z,59.30
2017-08-18T01:19:30.185Z,59.30
2017-08-18T01:21:58.485Z,59.70
2017-08-18T01:24:26.034Z,59.60
2017-08-18T01:26:54.325Z,59.40
2017-08-18T01:29:21.854Z,59.40
2017-08-18T01:31:50.150Z,58.70
2017-08-18T01:34:17.686Z,58.70
2017-08-18T01:36:46.009Z,59.50
2017-08-18T01:39:13.538Z,59.30
2017-08-18T01:41:41.074Z,59.30
2017-08-18T01:44:08.597Z,59.50
2017-08-18T01:46:36.130Z,58.80
2017-08-18T01:49:03.682Z,58.40
2017-08-18T01:51:31.213Z,58.90
2017-08-18T01:53:58.738Z,59.60
2017-08-18T01:56:26.264Z,59.40
2017-08-18T01:58:53.806Z,59.60
2017-08-18T02:01:22.126Z,59.50
2017-08-18T02:03:49.649Z,59.50
2017-08-18T02:06:17.186Z,59.20
2017-08-18T02:08:45.510Z,58.60
2017-08-18T02:11:13.034Z,58.60
2017-08-18T02:13:41.370Z,58.90
2017-08-18T02:16:08.895Z,58.80
2017-08-18T02:18:36.462Z,58.80
2017-08-18T02:21:03.994Z,59.20
2017-08-18T02:23:31.522Z,58.70
2017-08-18T02:25:59.846Z,59.30
2017-08-18T02:28:27.371Z,59.20
2017-08-18T02:30:55.682Z,58.30
2017-08-18T02:33:23.275Z,58.30
2017-08-18T02:35:50.853Z,57.90
2017-08-18T02:38:18.409Z,58.10
2017-08-18T02:40:45.946Z,57.50
2017-08-18T02:43:13.485Z,56.60
2017-08-18T02:45:41.011Z,56.80
2017-08-18T02:48:08.534Z,57.50
2017-08-18T02:50:36.086Z,56.80
2017-08-18T02:53:03.618Z,56.80
2017-08-18T02:55:31.148Z,57.20
2017-08-18T02:57:58.673Z,57.10
2017-08-18T03:00:26.204Z,57.80
2017-08-18T03:02:53.762Z,58.10
2017-08-18T03:05:21.315Z,58.80
2017-08-18T03:07:48.841Z,59.10
2017-08-18T03:10:16.390Z,59.30
2017-08-18T03:12:43.931Z,59.40
2017-08-18T03:15:12.258Z,60.10
2017-08-18T03:17:39.774Z,59.40
2017-08-18T03:20:08.070Z,59.50
2017-08-18T03:22:35.614Z,59.50
2017-08-18T03:25:03.914Z,59.90
2017-08-18T03:27:31.475Z,59.80
2017-08-18T03:29:59.010Z,60.00
2017-08-18T03:32:27.301Z,60.60
2017-08-18T03:34:54.830Z,60.60
2017-08-18T03:37:22.353Z,61.00
2017-08-18T03:39:49.913Z,61.70
2017-08-18T03:42:17.433Z,61.90
2017-08-18T03:44:44.962Z,62.10
2017-08-18T03:47:13.256Z,63.30
2017-08-18T03:49:41.545Z,62.70
2017-08-18T03:52:09.097Z,62.70
2017-08-18T03:54:36.636Z,62.70
2017-08-18T03:57:04.933Z,63.60
2017-08-18T03:59:32.458Z,63.50
2017-08-18T04:01:59.982Z,63.60
2017-08-18T04:04:27.537Z,64.40
2017-08-18T04:06:55.062Z,64.50
2017-08-18T04:09:22.604Z,64.60
2017-08-18T04:11:50.899Z,64.90
2017-08-18T04:14:18.426Z,64.60
2017-08-18T04:16:45.999Z,64.80
2017-08-18T04:19:14.298Z,65.10
2017-08-18T04:21:41.829Z,64.60
2017-08-18T04:24:10.132Z,66.10
2017-08-18T04:26:37.669Z,65.40
2017-08-18T04:29:05.994Z,65.10
2017-08-18T04:31:33.522Z,65.10
2017-08-18T04:34:01.048Z,64.50
2017-08-18T04:36:28.578Z,64.20
2017-08-18T04:38:56.097Z,63.90
2017-08-18T04:41:23.660Z,64.00
2017-08-18T04:43:51.194Z,63.80
2017-08-18T04:46:19.494Z,64.10
2017-08-18T04:48:47.022Z,63.20
2017-08-18T04:51:14.546Z,63.00
2017-08-18T04:53:42.109Z,62.90
2017-08-18T04:56:09.633Z,62.90
2017-08-18T04:58:37.166Z,63.40
2017-08-18T05:01:05.466Z,63.10
2017-08-18T05:03:32.993Z,63.10
2017-08-18T05:06:00.542Z,63.30
2017-08-18T05:08:28.078Z,63.40
2017-08-18T05:10:55.613Z,61.90
2017-08-18T05:13:23.137Z,61.60
2017-08-18T05:15:51.432Z,61.20
2017-08-18T05:18:18.983Z,61.20
2017-08-18T05:20:46.506Z,60.80
2017-08-18T05:23:14.029Z,59.80
2017-08-18T05:25:41.555Z,59.70
2017-08-18T05:28:09.086Z,59.20
2017-08-18T05:30:36.633Z,59.30
2017-08-18T05:33:04.270Z,59.00
2017-08-18T05:35:31.802Z,59.30
2017-08-18T05:37:59.330Z,59.30
2017-08-18T05:40:26.850Z,59.10
2017-08-18T05:42:54.402Z,58.90
2017-08-18T05:45:21.927Z,58.50
2017-08-18T05:47:49.448Z,58.70
2017-08-18T05:50:16.976Z,58.40
2017-08-18T05:52:44.525Z,58.60
2017-08-18T05:55:12.109Z,58.10
2017-08-18T05:57:39.634Z,58.60
2017-08-18T06:00:07.157Z,58.40
2017-08-18T06:02:34.682Z,58.00
2017-08-18T06:05:02.214Z,57.70
2017-08-18T06:07:29.765Z,57.60
2017-08-18T06:09:57.289Z,57.10
2017-08-18T06:12:24.810Z,56.90
2017-08-18T06:14:52.334Z,56.70
2017-08-18T06:17:19.887Z,56.80
2017-08-18T06:19:47.587Z,57.30
2017-08-18T06:22:15.495Z,56.20
2017-08-18T06:24:43.042Z,55.60
2017-08-18T06:27:11.436Z,56.30
2017-08-18T06:29:40.495Z,55.60
2017-08-18T06:32:08.684Z,55.50
2017-08-18T06:34:36.221Z,56.20
2017-08-18T06:37:04.828Z,57.10
2017-08-18T06:39:32.541Z,57.50
2017-08-18T06:42:00.163Z,57.50
2017-08-18T06:44:28.607Z,58.60
2017-08-18T06:46:56.134Z,58.00
2017-08-18T06:49:23.689Z,57.40
2017-08-18T06:51:51.210Z,56.80
2017-08-18T06:54:18.733Z,56.20
2017-08-18T06:56:46.286Z,55.90
2017-08-18T06:59:13.813Z,55.70
2017-08-18T07:01:41.343Z,57.00
2017-08-18T07:04:08.869Z,56.30
2017-08-18T07:06:36.427Z,55.50
2017-08-18T07:09:03.985Z,55.90
2017-08-18T07:11:31.518Z,56.10
2017-08-18T07:13:59.046Z,57.10
2017-08-18T07:16:26.574Z,55.70
2017-08-18T07:18:54.097Z,56.10
2017-08-18T07:21:21.645Z,55.50
2017-08-18T07:23:49.171Z,54.60
2017-08-18T07:26:16.704Z,54.40
2017-08-18T07:28:44.229Z,54.30
2017-08-18T07:31:11.758Z,54.80
2017-08-18T07:33:40.080Z,55.90
2017-08-18T07:36:07.605Z,55.90
2017-08-18T07:38:35.894Z,54.90
2017-08-18T07:41:03.423Z,54.80
2017-08-18T07:43:30.982Z,54.80
2017-08-18T07:45:59.286Z,53.70
2017-08-18T07:48:26.810Z,53.60
2017-08-18T07:50:54.373Z,53.90
2017-08-18T07:53:21.902Z,53.50
2017-08-18T07:55:49.433Z,53.40
2017-08-18T07:58:16.966Z,53.30
2017-08-18T08:00:45.266Z,52.70
2017-08-18T08:03:12.818Z,52.70
2017-08-18T08:05:40.354Z,51.50
2017-08-18T08:08:08.650Z,52.20
2017-08-18T08:10:36.177Z,52.20
2017-08-18T08:13:03.718Z,51.90
2017-08-18T08:15:31.273Z,51.10
2017-08-18T08:17:58.804Z,50.20
2017-08-18T08:20:26.330Z,50.80
2017-08-18T08:22:54.626Z,51.20
2017-08-18T08:25:22.154Z,51.10
2017-08-18T08:27:50.555Z,50.60
2017-08-18T08:30:18.082Z,50.50
2017-08-18T08:32:45.610Z,50.60
2017-08-18T08:35:13.139Z,50.20
2017-08-18T08:37:40.665Z,49.90
2017-08-18T08:40:08.988Z,50.10
2017-08-18T08:42:36.515Z,49.90
2017-08-18T08:45:04.805Z,48.80
2017-08-18T08:47:32.326Z,48.70
2017-08-18T08:49:59.849Z,49.40
2017-08-18T08:52:27.402Z,48.00
2017-08-18T08:54:54.929Z,48.60
2017-08-18T08:57:22.458Z,48.60
2017-08-18T08:59:49.985Z,47.80
2017-08-18T09:02:17.510Z,47.80
2017-08-18T09:04:45.062Z,48.00
2017-08-18T09:07:12.588Z,48.10
2017-08-18T09:09:40.114Z,48.40
2017-08-18T09:12:07.674Z,47.20
2017-08-18T09:14:35.219Z,47.70
2017-08-18T09:17:02.742Z,48.20
2017-08-18T09:19:31.033Z,46.30
2017-08-18T09:21:58.557Z,46.30
2017-08-18T09:24:26.120Z,45.90
2017-08-18T09:26:53.669Z,46.80
2017-08-18T09:29:21.199Z,48.10
2017-08-18T09:31:48.734Z,46.30
2017-08-18T09:34:16.261Z,46.10
2017-08-18T09:36:44.692Z,45.80
2017-08-18T09:39:12.217Z,45.80
2017-08-18T09:41:39.750Z,45.20
2017-08-18T09:44:07.370Z,45.00
2017-08-18T09:46:34.899Z,44.40
2017-08-18T09:49:14.258Z,44.90
2017-08-18T09:51:53.521Z,45.20
2017-08-18T09:54:32.967Z,43.80
2017-08-18T09:57:12.501Z,44.10
2017-08-18T09:59:40.061Z,43.70
2017-08-18T10:02:07.591Z,44.50
2017-08-18T10:04:35.114Z,42.70
2017-08-18T10:07:03.426Z,42.50
2017-08-18T10:09:30.958Z,42.40
2017-08-18T10:11:58.517Z,41.60
2017-08-18T10:14:26.105Z,42.20
2017-08-18T10:16:53.641Z,41.30
2017-08-18T10:19:21.165Z,40.90
2017-08-18T10:21:49.473Z,39.30
2017-08-18T10:24:17.030Z,39.90
2017-08-18T10:26:44.561Z,39.70
2017-08-18T10:29:12.860Z,40.80
2017-08-18T10:31:40.387Z,40.80
2017-08-18T10:34:07.913Z,39.00
2017-08-18T10:36:35.468Z,40.00
2017-08-18T10:39:02.997Z,39.20
2017-08-18T10:41:30.525Z,39.70
2017-08-18T10:43:58.050Z,39.50
2017-08-18T10:46:25.578Z,39.10
2017-08-18T10:48:53.134Z,39.00
2017-08-18T10:51:20.662Z,38.40
2017-08-18T10:53:48.954Z,37.20
2017-08-18T10:56:16.486Z,37.50
2017-08-18T10:58:44.018Z,37.90
2017-08-18T11:01:11.569Z,38.40
2017-08-18T11:03:39.098Z,36.70
2017-08-18T11:06:06.625Z,38.10
2017-08-18T11:08:34.150Z,36.40
2017-08-18T11:11:01.679Z,36.80
2017-08-18T11:13:29.243Z,37.20
2017-08-18T11:15:56.781Z,37.50
2017-08-18T11:18:25.078Z,36.80
2017-08-18T11:20:52.610Z,36.80
2017-08-18T11:23:20.905Z,36.90
2017-08-18T11:25:48.471Z,36.90
2017-08-18T11:28:16.002Z,36.20
2017-08-18T11:30:44.289Z,35.50
2017-08-18T11:33:12.577Z,36.80
2017-08-18T11:35:40.109Z,36.80
2017-08-18T11:38:08.430Z,37.60
2017-08-18T11:40:35.949Z,37.20
2017-08-18T11:43:04.242Z,35.80
2017-08-18T11:45:31.769Z,35.80
2017-08-18T11:47:59.394Z,34.70
2017-08-18T11:50:27.057Z,35.70
2017-08-18T11:52:54.586Z,35.00
2017-08-18T11:55:22.110Z,35.20
2017-08-18T11:57:49.636Z,35.20
2017-08-18T12:00:17.165Z,34.80
2017-08-18T12:02:44.722Z,33.70
2017-08-18T12:05:12.245Z,33.40
2017-08-18T12:07:40.542Z,32.70
2017-08-18T12:10:08.069Z,32.60
2017-08-18T12:12:35.591Z,33.30
2017-08-18T12:15:03.153Z,33.50
2017-08-18T12:17:30.683Z,33.60
2017-08-18T12:19:58.209Z,33.80
2017-08-18T12:22:25.731Z,33.60
2017-08-18T12:24:53.261Z,34.00
2017-08-18T12:27:20.823Z,33.40
2017-08-18T12:29:48.357Z,32.80
2017-08-18T12:32:16.654Z,31.00
2017-08-18T12:34:44.186Z,31.00
2017-08-18T12:37:12.477Z,31.30
2017-08-18T12:39:40.046Z,31.20
2017-08-18T12:42:07.574Z,30.70
2017-08-18T12:44:35.098Z,28.50
2017-08-18T12:47:02.637Z,28.60
2017-08-18T12:49:30.173Z,29.80
2017-08-18T12:51:57.735Z,28.20
2017-08-18T12:54:25.270Z,28.30
2017-08-18T12:56:53.616Z,28.10
2017-08-18T12:59:21.142Z,27.50
2017-08-18T13:01:48.670Z,27.40
2017-08-18T13:04:16.997Z,26.30
2017-08-18T13:06:44.527Z,26.10
2017-08-18T13:09:12.074Z,25.30
2017-08-18T13:11:39.607Z,25.10
2017-08-18T13:14:07.137Z,25.00
2017-08-18T13:16:34.686Z,25.10
2017-08-18T13:19:02.211Z,24.50
2017-08-18T13:21:29.747Z,23.70
2017-08-18T13:23:57.273Z,22.90
2017-08-18T13:26:24.798Z,22.70
2017-08-18T13:28:52.354Z,23.00
2017-08-18T13:31:19.886Z,23.40
2017-08-18T13:33:48.175Z,23.90
2017-08-18T13:36:17.621Z,23.20
2017-08-18T13:38:45.153Z,23.10
2017-08-18T13:41:12.750Z,22.60
2017-08-18T13:43:40.274Z,22.30
2017-08-18T13:46:07.798Z,21.60
2017-08-18T13:48:35.326Z,21.40
2017-08-18T13:51:02.841Z,21.20
2017-08-18T13:53:30.386Z,20.80
2017-08-18T13:55:58.674Z,20.00
2017-08-18T13:58:26.193Z,20.00
2017-08-18T14:00:53.716Z,20.10
2017-08-18T14:03:21.246Z,19.80
2017-08-18T14:05:48.795Z,19.20
2017-08-18T14:08:17.086Z,20.30
2017-08-18T14:10:44.616Z,20.30
2017-08-18T14:13:12.910Z,21.10
2017-08-18T14:15:41.203Z,21.00
2017-08-18T14:18:08.757Z,21.00
2017-08-18T14:20:36.277Z,20.50
2017-08-18T14:23:03.801Z,20.30
2017-08-18T14:25:37.034Z,20.90
2017-08-18T14:28:04.561Z,21.10
2017-08-18T14:30:32.087Z,20.70
2017-08-18T14:32:59.610Z,20.10
2017-08-18T14:35:27.153Z,19.90
2017-08-18T14:37:54.675Z,20.20
2017-08-18T14:40:22.198Z,19.60
2017-08-18T14:42:50.526Z,19.60
2017-08-18T14:45:18.048Z,19.60
2017-08-18T14:47:45.602Z,20.00
2017-08-18T14:50:13.894Z,21.80
2017-08-18T14:52:41.415Z,21.80
2017-08-18T14:55:09.710Z,21.20
2017-08-18T14:57:37.995Z,20.90
2017-08-18T15:00:05.542Z,20.90
2017-08-18T15:02:33.830Z,21.30
2017-08-18T15:05:01.365Z,21.20
2017-08-18T15:07:29.653Z,19.90
2017-08-18T15:09:57.938Z,19.90
2017-08-18T15:12:25.481Z,19.90
2017-08-18T15:14:53.777Z,20.30
2017-08-18T15:17:21.310Z,20.20
2017-08-18T15:19:49.601Z,20.70
2017-08-18T15:22:17.890Z,20.30
2017-08-18T15:24:45.435Z,20.20
2017-08-18T15:27:13.729Z,21.10
2017-08-18T15:29:41.251Z,21.10
2017-08-18T15:32:08.782Z,22.10
2017-08-18T15:34:36.309Z,23.90
2017-08-18T15:37:03.857Z,25.30
2017-08-18T15:39:31.377Z,26.20
2017-08-18T15:41:58.897Z,26.70
2017-08-18T15:44:26.422Z,27.70
2017-08-18T15:46:54.714Z,29.60
2017-08-18T15:49:22.261Z,29.60
2017-08-18T15:51:49.789Z,30.00
2017-08-18T15:54:17.310Z,29.80
2017-08-18T15:56:44.834Z,29.50
2017-08-18T15:59:13.131Z,28.50
2017-08-18T16:01:40.685Z,28.40
2017-08-18T16:04:08.218Z,27.80
2017-08-18T16:06:36.513Z,26.90
2017-08-18T16:09:04.074Z,26.90
2017-08-18T16:11:31.602Z,26.30
2017-08-18T16:13:59.150Z,26.50
2017-08-18T16:16:26.675Z,27.10
2017-08-18T16:18:54.201Z,28.00
2017-08-18T16:21:21.726Z,28.60
2017-08-18T16:23:49.254Z,29.20
2017-08-18T16:26:16.811Z,29.30
2017-08-18T16:28:44.349Z,30.10
2017-08-18T16:31:11.888Z,30.60
2017-08-18T16:33:40.188Z,30.60
2017-08-18T16:36:07.756Z,30.60
2017-08-18T16:38:35.330Z,30.70
2017-08-18T16:41:02.855Z,31.30
2017-08-18T16:43:30.441Z,32.40
2017-08-18T16:45:57.966Z,32.70
2017-08-18T16:48:25.510Z,32.70
2017-08-18T16:50:53.859Z,32.90
2017-08-18T16:53:21.402Z,32.90
2017-08-18T16:55:48.934Z,32.80
2017-08-18T16:58:16.457Z,33.30
2017-08-18T17:00:44.006Z,33.70
2017-08-18T17:03:11.598Z,33.90
2017-08-18T17:05:39.143Z,34.00
2017-08-18T17:08:07.440Z,34.00
2017-08-18T17:10:34.970Z,33.90
2017-08-18T17:13:03.272Z,35.00
2017-08-18T17:15:30.827Z,34.70
2017-08-18T17:17:58.372Z,34.90
2017-08-18T17:20:26.661Z,35.40
2017-08-18T17:22:54.190Z,35.40
2017-08-18T17:25:21.722Z,35.60
2017-08-18T17:27:49.302Z,35.90
2017-08-18T17:30:16.853Z,35.90
2017-08-18T17:32:44.390Z,36.00
2017-08-18T17:35:11.917Z,36.10
2017-08-18T17:37:39.445Z,36.10
2017-08-18T17:40:07.005Z,36.40
2017-08-18T17:42:35.341Z,36.80
2017-08-18T17:45:02.885Z,36.90
2017-08-18T17:47:30.418Z,37.30
2017-08-18T17:49:58.712Z,37.90
2017-08-18T17:52:26.266Z,37.80
2017-08-18T17:54:53.798Z,38.70
2017-08-18T17:57:22.090Z,38.20
2017-08-18T17:59:50.377Z,38.80
2017-08-18T18:02:17.910Z,38.70
2017-08-18T18:04:46.239Z,39.60
2017-08-18T18:07:13.777Z,39.10
2017-08-18T18:09:41.310Z,39.10
2017-08-18T18:12:09.609Z,39.30
2017-08-18T18:14:37.134Z,39.30
2017-08-18T18:17:04.685Z,39.50
2017-08-18T18:19:32.207Z,39.70
2017-08-18T18:21:59.730Z,40.10
2017-08-18T18:24:28.021Z,41.20
2017-08-18T18:26:55.542Z,41.10
2017-08-18T18:29:23.161Z,41.50
2017-08-18T18:31:50.690Z,41.80
2017-08-18T18:34:18.227Z,42.00
2017-08-18T18:36:46.522Z,42.20
2017-08-18T18:39:14.045Z,42.10
2017-08-18T18:41:41.603Z,42.30
2017-08-18T18:44:09.134Z,42.70
2017-08-18T18:46:36.666Z,42.60
2017-08-18T18:49:04.194Z,42.50
2017-08-18T18:51:32.486Z,42.30
2017-08-18T18:54:00.802Z,42.70
2017-08-18T18:56:28.330Z,42.70
2017-08-18T18:58:55.864Z,42.90
2017-08-18T19:01:24.154Z,43.30
2017-08-18T19:03:51.689Z,43.00
2017-08-18T19:06:19.246Z,43.30
2017-08-18T19:08:46.770Z,43.50
2017-08-18T19:11:14.294Z,43.80
2017-08-18T19:13:42.582Z,43.70
2017-08-18T19:16:10.170Z,43.70
2017-08-18T19:18:37.729Z,43.80
2017-08-18T19:21:05.282Z,43.90
2017-08-18T19:23:32.810Z,43.70
2017-08-18T19:26:00.341Z,44.10
2017-08-18T19:28:27.865Z,44.00
2017-08-18T19:30:55.422Z,44.00
2017-08-18T19:33:22.958Z,44.00
2017-08-18T19:35:50.546Z,43.90
2017-08-18T19:38:18.074Z,44.10
2017-08-18T19:40:45.597Z,44.20
2017-08-18T19:43:13.157Z,44.20
2017-08-18T19:45:41.441Z,44.20
2017-08-18T19:48:09.740Z,44.20
2017-08-18T19:50:37.269Z,44.60
2017-08-18T19:53:05.576Z,45.00
2017-08-18T19:55:33.128Z,44.50
2017-08-18T19:58:00.664Z,44.40
2017-08-18T20:00:28.957Z,44.80
2017-08-18T20:02:56.485Z,44.80
2017-08-18T20:05:24.010Z,45.00
2017-08-18T20:07:51.565Z,44.60
2017-08-18T20:10:19.099Z,44.70
2017-08-18T20:12:46.637Z,44.90
2017-08-18T20:15:14.934Z,45.80
2017-08-18T20:17:42.459Z,45.10
2017-08-18T20:20:10.022Z,45.50
2017-08-18T20:22:37.549Z,45.40
2017-08-18T20:25:05.074Z,45.40
2017-08-18T20:27:32.597Z,45.20
2017-08-18T20:30:00.890Z,45.40
2017-08-18T20:32:29.205Z,45.40
2017-08-18T20:34:56.742Z,45.40
2017-08-18T20:37:24.287Z,45.30
2017-08-18T20:39:51.827Z,45.10
2017-08-18T20:42:20.123Z,45.40
2017-08-18T20:44:47.678Z,45.20
2017-08-18T20:47:15.969Z,45.20
2017-08-18T20:49:43.494Z,45.20
2017-08-18T20:52:11.030Z,45.20
2017-08-18T20:54:38.562Z,45.60
2017-08-18T20:57:06.116Z,45.50
2017-08-18T20:59:33.642Z,45.60
2017-08-18T21:02:01.930Z,45.50
2017-08-18T21:04:29.461Z,45.40
2017-08-18T21:06:56.989Z,45.60
2017-08-18T21:09:24.572Z,45.30
2017-08-18T21:11:52.102Z,45.40
2017-08-18T21:14:19.630Z,45.40
2017-08-18T21:16:47.153Z,45.30
2017-08-18T21:19:14.681Z,45.60
2017-08-18T21:21:42.229Z,45.70
2017-08-18T21:24:09.761Z,45.40
2017-08-18T21:26:37.290Z,45.90
2017-08-18T21:29:04.814Z,46.10
2017-08-18T21:31:32.342Z,46.20
2017-08-18T21:33:59.902Z,46.60
2017-08-18T21:36:27.478Z,46.50
2017-08-18T21:38:55.010Z,46.60
2017-08-18T21:41:22.541Z,46.80
2017-08-18T21:43:50.838Z,46.20
2017-08-18T21:46:18.397Z,46.50
2017-08-18T21:48:45.925Z,46.50
2017-08-18T21:51:13.449Z,46.50
2017-08-18T21:53:40.979Z,46.80
2017-08-18T21:56:08.510Z,46.50
2017-08-18T21:58:36.946Z,47.10
2017-08-18T22:01:04.473Z,46.50
2017-08-18T22:03:32.002Z,46.80
2017-08-18T22:05:59.536Z,46.70
2017-08-18T22:08:27.093Z,47.20
2017-08-18T22:10:54.658Z,46.90
2017-08-18T22:13:22.191Z,47.20
2017-08-18T22:15:49.717Z,47.20
2017-08-18T22:18:18.017Z,47.20
2017-08-18T22:20:45.542Z,47.20
2017-08-18T22:23:13.861Z,49.40
2017-08-18T22:25:41.403Z,48.70
2017-08-18T22:28:08.925Z,49.30
2017-08-18T22:30:37.229Z,49.60
2017-08-18T22:33:04.754Z,49.20
2017-08-18T22:35:32.314Z,49.30
2017-08-18T22:37:59.833Z,49.20
2017-08-18T22:40:27.362Z,49.80
2017-08-18T22:42:54.897Z,50.10
2017-08-18T22:45:22.429Z,49.90
2017-08-18T22:47:49.977Z,50.10
2017-08-18T22:50:17.502Z,50.60
2017-08-18T22:52:45.034Z,50.90
2017-08-18T22:55:13.333Z,51.00
2017-08-18T22:57:40.867Z,51.00
2017-08-18T23:00:09.194Z,52.70
2017-08-18T23:02:36.717Z,51.90
2017-08-18T23:05:05.014Z,50.90
2017-08-18T23:07:32.537Z,50.90
2017-08-18T23:10:00.830Z,50.70
2017-08-18T23:12:29.149Z,50.60
2017-08-18T23:14:56.678Z,50.40
2017-08-18T23:17:24.201Z,50.10
2017-08-18T23:19:51.728Z,50.00
2017-08-18T23:22:19.250Z,50.20
2017-08-18T23:24:46.809Z,51.00
2017-08-18T23:27:14.406Z,51.60
2017-08-18T23:29:41.944Z,51.20
2017-08-18T23:32:09.478Z,51.60
2017-08-18T23:34:37.002Z,51.80
2017-08-18T23:37:04.562Z,51.70
2017-08-18T23:39:32.086Z,51.60
2017-08-18T23:41:59.614Z,51.30
2017-08-18T23:44:27.141Z,51.80
2017-08-18T23:46:54.666Z,52.40
2017-08-18T23:49:22.222Z,52.00
2017-08-18T23:51:49.758Z,51.80
2017-08-18T23:54:17.290Z,51.60
2017-08-18T23:56:45.594Z,51.80
2017-08-18T23:59:13.118Z,51.80
